sensor_id;sensor_type;location;lat;lon;timestamp;P1;durP1;ratioP1;P2;durP2;ratioP2
21554;SDS011;10938;44.794;-0.676;2023-07-16T00:02:20;0.20;;;0.20;;
21554;SDS011;10938;44.794;-0.676;2023-07-16T00:04:46;0.30;;;0.30;;
21554;SDS011;10938;44.794;-0.676;2023-07-16T00:07:11;0.50;;;0.50;;
21554;SDS011;10938;44.794;-0.676;2023-07-16T00:09:36;0.30;;;0.30;;
21554;SDS011;10938;44.794;-0.676;2023-07-16T00:12:02;0.52;;;0.30;;
21554;SDS011;10938;44.794;-0.676;2023-07-16T00:14:27;0.17;;;0.17;;
21554;SDS011;10938;44.794;-0.676;2023-07-16T00:16:52;0.30;;;0.23;;
21554;SDS011;10938;44.794;-0.676;2023-07-16T00:19:18;0.40;;;0.30;;
21554;SDS011;10938;44.794;-0.676;2023-07-16T00:21:43;0.30;;;0.30;;
21554;SDS011;10938;44.794;-0.676;2023-07-16T00:24:08;0.35;;;0.32;;
21554;SDS011;10938;44.794;-0.676;2023-07-16T00:26:33;0.20;;;0.20;;
21554;SDS011;10938;44.794;-0.676;2023-07-16T00:28:59;0.93;;;0.60;;
21554;SDS011;10938;44.794;-0.676;2023-07-16T00:31:24;0.30;;;0.30;;
21554;SDS011;10938;44.794;-0.676;2023-07-16T00:33:49;2.40;;;0.70;;
21554;SDS011;10938;44.794;-0.676;2023-07-16T00:36:15;1.03;;;0.83;;
21554;SDS011;10938;44.794;-0.676;2023-07-16T00:38:40;0.40;;;0.40;;
21554;SDS011;10938;44.794;-0.676;2023-07-16T00:41:06;0.50;;;0.50;;
21554;SDS011;10938;44.794;-0.676;2023-07-16T00:43:32;6.47;;;0.63;;
21554;SDS011;10938;44.794;-0.676;2023-07-16T00:45:57;0.47;;;0.40;;
21554;SDS011;10938;44.794;-0.676;2023-07-16T00:48:22;0.75;;;0.75;;
21554;SDS011;10938;44.794;-0.676;2023-07-16T00:50:49;0.30;;;0.20;;
21554;SDS011;10938;44.794;-0.676;2023-07-16T00:53:15;0.20;;;0.20;;
21554;SDS011;10938;44.794;-0.676;2023-07-16T00:55:41;0.35;;;0.35;;
21554;SDS011;10938;44.794;-0.676;2023-07-16T00:58:07;0.60;;;0.40;;
21554;SDS011;10938;44.794;-0.676;2023-07-16T01:03:35;4.55;;;1.10;;
21554;SDS011;10938;44.794;-0.676;2023-07-16T01:06:04;0.47;;;0.43;;
21554;SDS011;10938;44.794;-0.676;2023-07-16T01:08:46;0.52;;;0.35;;
21554;SDS011;10938;44.794;-0.676;2023-07-16T01:11:12;0.52;;;0.45;;
21554;SDS011;10938;44.794;-0.676;2023-07-16T01:13:37;0.30;;;0.30;;
21554;SDS011;10938;44.794;-0.676;2023-07-16T01:16:02;0.25;;;0.25;;
21554;SDS011;10938;44.794;-0.676;2023-07-16T01:18:28;0.43;;;0.43;;
21554;SDS011;10938;44.794;-0.676;2023-07-16T01:20:53;0.60;;;0.47;;
21554;SDS011;10938;44.794;-0.676;2023-07-16T01:29:14;0.28;;;0.28;;
21554;SDS011;10938;44.794;-0.676;2023-07-16T01:31:43;0.60;;;0.35;;
21554;SDS011;10938;44.794;-0.676;2023-07-16T01:34:10;0.25;;;0.25;;
21554;SDS011;10938;44.794;-0.676;2023-07-16T01:36:35;0.40;;;0.32;;
21554;SDS011;10938;44.794;-0.676;2023-07-16T01:39:01;0.38;;;0.38;;
21554;SDS011;10938;44.794;-0.676;2023-07-16T01:41:26;2.50;;;0.90;;
21554;SDS011;10938;44.794;-0.676;2023-07-16T01:43:51;0.40;;;0.40;;
21554;SDS011;10938;44.794;-0.676;2023-07-16T01:46:17;0.40;;;0.40;;
21554;SDS011;10938;44.794;-0.676;2023-07-16T01:48:42;0.43;;;0.35;;
21554;SDS011;10938;44.794;-0.676;2023-07-16T01:51:08;0.73;;;0.57;;
21554;SDS011;10938;44.794;-0.676;2023-07-16T01:53:33;0.63;;;0.63;;
21554;SDS011;10938;44.794;-0.676;2023-07-16T01:56:00;0.47;;;0.47;;
21554;SDS011;10938;44.794;-0.676;2023-07-16T01:58:25;1.02;;;0.70;;
21554;SDS011;10938;44.794;-0.676;2023-07-16T02:00:50;0.47;;;0.47;;
21554;SDS011;10938;44.794;-0.676;2023-07-16T02:03:16;0.50;;;0.50;;
21554;SDS011;10938;44.794;-0.676;2023-07-16T02:05:41;0.20;;;0.20;;
21554;SDS011;10938;44.794;-0.676;2023-07-16T02:08:06;0.32;;;0.32;;
21554;SDS011;10938;44.794;-0.676;2023-07-16T02:10:32;0.87;;;0.77;;
21554;SDS011;10938;44.794;-0.676;2023-07-16T02:12:57;0.73;;;0.40;;
21554;SDS011;10938;44.794;-0.676;2023-07-16T02:15:22;0.90;;;0.50;;
21554;SDS011;10938;44.794;-0.676;2023-07-16T02:17:48;1.23;;;0.73;;
21554;SDS011;10938;44.794;-0.676;2023-07-16T02:20:13;0.68;;;0.57;;
21554;SDS011;10938;44.794;-0.676;2023-07-16T02:22:38;0.38;;;0.38;;
21554;SDS011;10938;44.794;-0.676;2023-07-16T02:25:04;0.40;;;0.40;;
21554;SDS011;10938;44.794;-0.676;2023-07-16T02:27:29;0.32;;;0.28;;
21554;SDS011;10938;44.794;-0.676;2023-07-16T02:29:55;0.70;;;0.50;;
21554;SDS011;10938;44.794;-0.676;2023-07-16T02:32:20;2.15;;;0.77;;
21554;SDS011;10938;44.794;-0.676;2023-07-16T02:34:45;0.77;;;0.77;;
21554;SDS011;10938;44.794;-0.676;2023-07-16T02:37:11;0.40;;;0.40;;
21554;SDS011;10938;44.794;-0.676;2023-07-16T02:39:37;0.95;;;0.52;;
21554;SDS011;10938;44.794;-0.676;2023-07-16T02:42:03;0.55;;;0.35;;
21554;SDS011;10938;44.794;-0.676;2023-07-16T02:44:28;0.77;;;0.77;;
21554;SDS011;10938;44.794;-0.676;2023-07-16T02:46:56;0.20;;;0.20;;
21554;SDS011;10938;44.794;-0.676;2023-07-16T02:49:24;1.27;;;0.50;;
21554;SDS011;10938;44.794;-0.676;2023-07-16T02:51:50;0.57;;;0.50;;
21554;SDS011;10938;44.794;-0.676;2023-07-16T02:54:15;0.20;;;0.20;;
21554;SDS011;10938;44.794;-0.676;2023-07-16T02:56:40;0.33;;;0.33;;
21554;SDS011;10938;44.794;-0.676;2023-07-16T02:59:05;0.63;;;0.60;;
21554;SDS011;10938;44.794;-0.676;2023-07-16T03:01:31;0.73;;;0.50;;
21554;SDS011;10938;44.794;-0.676;2023-07-16T03:03:56;0.83;;;0.67;;
21554;SDS011;10938;44.794;-0.676;2023-07-16T03:06:21;0.50;;;0.50;;
21554;SDS011;10938;44.794;-0.676;2023-07-16T03:08:47;0.57;;;0.57;;
21554;SDS011;10938;44.794;-0.676;2023-07-16T03:11:12;0.60;;;0.60;;
21554;SDS011;10938;44.794;-0.676;2023-07-16T03:13:37;2.50;;;1.17;;
21554;SDS011;10938;44.794;-0.676;2023-07-16T03:16:02;0.87;;;0.30;;
21554;SDS011;10938;44.794;-0.676;2023-07-16T03:18:28;0.38;;;0.38;;
21554;SDS011;10938;44.794;-0.676;2023-07-16T03:20:54;0.55;;;0.55;;
21554;SDS011;10938;44.794;-0.676;2023-07-16T03:23:20;0.40;;;0.40;;
21554;SDS011;10938;44.794;-0.676;2023-07-16T03:25:45;1.08;;;0.85;;
21554;SDS011;10938;44.794;-0.676;2023-07-16T03:28:10;0.50;;;0.50;;
21554;SDS011;10938;44.794;-0.676;2023-07-16T03:30:36;0.93;;;0.70;;
21554;SDS011;10938;44.794;-0.676;2023-07-16T03:33:02;1.55;;;0.65;;
21554;SDS011;10938;44.794;-0.676;2023-07-16T03:35:27;0.32;;;0.32;;
21554;SDS011;10938;44.794;-0.676;2023-07-16T03:37:53;3.00;;;0.67;;
21554;SDS011;10938;44.794;-0.676;2023-07-16T03:40:21;1.23;;;1.05;;
21554;SDS011;10938;44.794;-0.676;2023-07-16T03:42:47;1.40;;;1.10;;
21554;SDS011;10938;44.794;-0.676;2023-07-16T03:45:12;0.65;;;0.65;;
21554;SDS011;10938;44.794;-0.676;2023-07-16T03:47:39;0.57;;;0.57;;
21554;SDS011;10938;44.794;-0.676;2023-07-16T03:50:05;0.30;;;0.30;;
21554;SDS011;10938;44.794;-0.676;2023-07-16T03:52:30;1.88;;;0.80;;
21554;SDS011;10938;44.794;-0.676;2023-07-16T03:54:56;0.40;;;0.40;;
21554;SDS011;10938;44.794;-0.676;2023-07-16T03:57:21;1.27;;;0.80;;
21554;SDS011;10938;44.794;-0.676;2023-07-16T03:59:46;0.30;;;0.30;;
21554;SDS011;10938;44.794;-0.676;2023-07-16T04:02:12;0.40;;;0.40;;
21554;SDS011;10938;44.794;-0.676;2023-07-16T04:04:37;0.30;;;0.30;;
21554;SDS011;10938;44.794;-0.676;2023-07-16T04:07:02;0.50;;;0.45;;
21554;SDS011;10938;44.794;-0.676;2023-07-16T04:09:27;1.90;;;1.20;;
21554;SDS011;10938;44.794;-0.676;2023-07-16T04:11:53;0.57;;;0.57;;
21554;SDS011;10938;44.794;-0.676;2023-07-16T04:14:18;0.50;;;0.50;;
21554;SDS011;10938;44.794;-0.676;2023-07-16T04:16:43;0.52;;;0.52;;
21554;SDS011;10938;44.794;-0.676;2023-07-16T04:19:09;0.63;;;0.50;;
21554;SDS011;10938;44.794;-0.676;2023-07-16T04:21:34;0.68;;;0.68;;
21554;SDS011;10938;44.794;-0.676;2023-07-16T04:24:00;5.38;;;0.65;;
21554;SDS011;10938;44.794;-0.676;2023-07-16T04:26:25;1.20;;;0.55;;
21554;SDS011;10938;44.794;-0.676;2023-07-16T04:28:50;0.30;;;0.30;;
21554;SDS011;10938;44.794;-0.676;2023-07-16T04:31:15;2.03;;;0.80;;
21554;SDS011;10938;44.794;-0.676;2023-07-16T04:33:41;0.43;;;0.40;;
21554;SDS011;10938;44.794;-0.676;2023-07-16T04:36:06;0.40;;;0.40;;
21554;SDS011;10938;44.794;-0.676;2023-07-16T04:38:31;0.68;;;0.38;;
21554;SDS011;10938;44.794;-0.676;2023-07-16T04:40:56;1.00;;;0.70;;
21554;SDS011;10938;44.794;-0.676;2023-07-16T04:43:22;0.77;;;0.77;;
21554;SDS011;10938;44.794;-0.676;2023-07-16T04:45:47;0.47;;;0.47;;
21554;SDS011;10938;44.794;-0.676;2023-07-16T04:48:12;0.60;;;0.60;;
21554;SDS011;10938;44.794;-0.676;2023-07-16T04:50:39;1.50;;;1.40;;
21554;SDS011;10938;44.794;-0.676;2023-07-16T04:53:04;0.67;;;0.57;;
21554;SDS011;10938;44.794;-0.676;2023-07-16T04:55:34;0.40;;;0.40;;
21554;SDS011;10938;44.794;-0.676;2023-07-16T04:57:59;0.35;;;0.35;;
21554;SDS011;10938;44.794;-0.676;2023-07-16T05:00:25;0.87;;;0.70;;
21554;SDS011;10938;44.794;-0.676;2023-07-16T05:02:50;0.35;;;0.35;;
21554;SDS011;10938;44.794;-0.676;2023-07-16T05:05:15;0.67;;;0.67;;
21554;SDS011;10938;44.794;-0.676;2023-07-16T05:07:40;0.73;;;0.50;;
21554;SDS011;10938;44.794;-0.676;2023-07-16T05:10:06;1.02;;;0.90;;
21554;SDS011;10938;44.794;-0.676;2023-07-16T05:12:31;1.23;;;1.13;;
21554;SDS011;10938;44.794;-0.676;2023-07-16T05:14:57;1.67;;;0.97;;
21554;SDS011;10938;44.794;-0.676;2023-07-16T05:17:22;1.40;;;0.60;;
21554;SDS011;10938;44.794;-0.676;2023-07-16T05:19:48;1.35;;;0.63;;
21554;SDS011;10938;44.794;-0.676;2023-07-16T05:22:13;0.53;;;0.47;;
21554;SDS011;10938;44.794;-0.676;2023-07-16T05:24:38;1.67;;;1.52;;
21554;SDS011;10938;44.794;-0.676;2023-07-16T05:27:04;2.00;;;1.80;;
21554;SDS011;10938;44.794;-0.676;2023-07-16T05:29:29;4.57;;;2.95;;
21554;SDS011;10938;44.794;-0.676;2023-07-16T05:31:54;1.63;;;1.53;;
21554;SDS011;10938;44.794;-0.676;2023-07-16T05:34:19;2.10;;;1.57;;
21554;SDS011;10938;44.794;-0.676;2023-07-16T05:36:45;2.50;;;1.60;;
21554;SDS011;10938;44.794;-0.676;2023-07-16T05:39:10;1.80;;;1.43;;
21554;SDS011;10938;44.794;-0.676;2023-07-16T05:41:38;2.90;;;1.45;;
21554;SDS011;10938;44.794;-0.676;2023-07-16T05:44:04;1.25;;;1.15;;
21554;SDS011;10938;44.794;-0.676;2023-07-16T05:46:29;1.10;;;1.00;;
21554;SDS011;10938;44.794;-0.676;2023-07-16T05:48:54;0.80;;;0.80;;
21554;SDS011;10938;44.794;-0.676;2023-07-16T05:51:19;1.20;;;1.10;;
21554;SDS011;10938;44.794;-0.676;2023-07-16T05:53:45;5.03;;;0.88;;
21554;SDS011;10938;44.794;-0.676;2023-07-16T05:56:10;0.57;;;0.57;;
21554;SDS011;10938;44.794;-0.676;2023-07-16T05:58:35;0.60;;;0.60;;
21554;SDS011;10938;44.794;-0.676;2023-07-16T06:01:01;1.07;;;0.57;;
21554;SDS011;10938;44.794;-0.676;2023-07-16T06:03:26;0.75;;;0.70;;
21554;SDS011;10938;44.794;-0.676;2023-07-16T06:05:52;0.73;;;0.73;;
21554;SDS011;10938;44.794;-0.676;2023-07-16T06:08:17;0.80;;;0.80;;
21554;SDS011;10938;44.794;-0.676;2023-07-16T06:10:49;0.80;;;0.80;;
21554;SDS011;10938;44.794;-0.676;2023-07-16T06:13:14;1.07;;;0.90;;
21554;SDS011;10938;44.794;-0.676;2023-07-16T06:15:40;0.90;;;0.90;;
21554;SDS011;10938;44.794;-0.676;2023-07-16T06:18:05;1.23;;;1.13;;
21554;SDS011;10938;44.794;-0.676;2023-07-16T06:20:30;0.63;;;0.63;;
21554;SDS011;10938;44.794;-0.676;2023-07-16T06:22:56;1.27;;;1.00;;
21554;SDS011;10938;44.794;-0.676;2023-07-16T06:25:21;0.83;;;0.80;;
21554;SDS011;10938;44.794;-0.676;2023-07-16T06:27:47;1.08;;;1.08;;
21554;SDS011;10938;44.794;-0.676;2023-07-16T06:30:12;1.20;;;1.10;;
21554;SDS011;10938;44.794;-0.676;2023-07-16T06:32:37;1.40;;;1.30;;
21554;SDS011;10938;44.794;-0.676;2023-07-16T06:35:03;2.03;;;1.20;;
21554;SDS011;10938;44.794;-0.676;2023-07-16T06:37:28;1.58;;;1.48;;
21554;SDS011;10938;44.794;-0.676;2023-07-16T06:39:53;0.97;;;0.97;;
21554;SDS011;10938;44.794;-0.676;2023-07-16T06:42:19;0.73;;;0.73;;
21554;SDS011;10938;44.794;-0.676;2023-07-16T06:44:44;1.97;;;1.00;;
21554;SDS011;10938;44.794;-0.676;2023-07-16T06:47:10;1.08;;;1.08;;
21554;SDS011;10938;44.794;-0.676;2023-07-16T06:49:35;1.43;;;1.33;;
21554;SDS011;10938;44.794;-0.676;2023-07-16T06:52:00;1.20;;;1.10;;
21554;SDS011;10938;44.794;-0.676;2023-07-16T06:54:27;1.85;;;1.42;;
21554;SDS011;10938;44.794;-0.676;2023-07-16T06:56:52;1.65;;;1.10;;
21554;SDS011;10938;44.794;-0.676;2023-07-16T06:59:17;1.33;;;1.23;;
21554;SDS011;10938;44.794;-0.676;2023-07-16T07:01:42;1.60;;;1.30;;
21554;SDS011;10938;44.794;-0.676;2023-07-16T07:04:08;1.30;;;1.20;;
21554;SDS011;10938;44.794;-0.676;2023-07-16T07:06:33;2.03;;;1.93;;
21554;SDS011;10938;44.794;-0.676;2023-07-16T07:08:58;1.40;;;1.30;;
21554;SDS011;10938;44.794;-0.676;2023-07-16T07:11:24;1.90;;;1.80;;
21554;SDS011;10938;44.794;-0.676;2023-07-16T07:13:49;2.07;;;1.27;;
21554;SDS011;10938;44.794;-0.676;2023-07-16T07:16:15;1.40;;;1.30;;
21554;SDS011;10938;44.794;-0.676;2023-07-16T07:18:40;1.77;;;1.67;;
21554;SDS011;10938;44.794;-0.676;2023-07-16T07:21:06;2.03;;;1.93;;
21554;SDS011;10938;44.794;-0.676;2023-07-16T07:23:31;1.80;;;1.43;;
21554;SDS011;10938;44.794;-0.676;2023-07-16T07:25:56;1.70;;;1.60;;
21554;SDS011;10938;44.794;-0.676;2023-07-16T07:28:21;1.70;;;1.60;;
21554;SDS011;10938;44.794;-0.676;2023-07-16T07:30:47;2.33;;;2.13;;
21554;SDS011;10938;44.794;-0.676;2023-07-16T07:33:12;2.00;;;1.90;;
21554;SDS011;10938;44.794;-0.676;2023-07-16T07:35:37;2.23;;;2.03;;
21554;SDS011;10938;44.794;-0.676;2023-07-16T07:38:03;2.30;;;2.20;;
21554;SDS011;10938;44.794;-0.676;2023-07-16T07:40:28;1.73;;;1.63;;
21554;SDS011;10938;44.794;-0.676;2023-07-16T07:42:53;1.90;;;1.80;;
21554;SDS011;10938;44.794;-0.676;2023-07-16T07:45:19;2.20;;;2.10;;
21554;SDS011;10938;44.794;-0.676;2023-07-16T07:47:44;2.67;;;2.57;;
21554;SDS011;10938;44.794;-0.676;2023-07-16T07:50:09;3.07;;;2.87;;
21554;SDS011;10938;44.794;-0.676;2023-07-16T07:52:35;2.53;;;2.42;;
21554;SDS011;10938;44.794;-0.676;2023-07-16T07:55:01;2.67;;;2.55;;
21554;SDS011;10938;44.794;-0.676;2023-07-16T07:57:26;2.40;;;2.30;;
21554;SDS011;10938;44.794;-0.676;2023-07-16T07:59:51;3.07;;;2.87;;
21554;SDS011;10938;44.794;-0.676;2023-07-16T08:02:21;2.15;;;2.05;;
21554;SDS011;10938;44.794;-0.676;2023-07-16T08:04:48;2.42;;;2.33;;
21554;SDS011;10938;44.794;-0.676;2023-07-16T08:07:14;2.20;;;2.10;;
21554;SDS011;10938;44.794;-0.676;2023-07-16T08:09:39;2.57;;;2.40;;
21554;SDS011;10938;44.794;-0.676;2023-07-16T08:12:04;2.13;;;2.03;;
21554;SDS011;10938;44.794;-0.676;2023-07-16T08:14:30;1.90;;;1.80;;
21554;SDS011;10938;44.794;-0.676;2023-07-16T08:16:55;2.03;;;1.83;;
21554;SDS011;10938;44.794;-0.676;2023-07-16T08:19:20;3.20;;;1.83;;
21554;SDS011;10938;44.794;-0.676;2023-07-16T08:21:46;4.60;;;2.17;;
21554;SDS011;10938;44.794;-0.676;2023-07-16T08:24:11;2.13;;;1.87;;
21554;SDS011;10938;44.794;-0.676;2023-07-16T08:26:36;2.03;;;1.93;;
21554;SDS011;10938;44.794;-0.676;2023-07-16T08:29:01;1.93;;;1.40;;
21554;SDS011;10938;44.794;-0.676;2023-07-16T08:31:27;2.40;;;1.45;;
21554;SDS011;10938;44.794;-0.676;2023-07-16T08:33:53;1.85;;;1.60;;
21554;SDS011;10938;44.794;-0.676;2023-07-16T08:36:18;1.67;;;1.58;;
21554;SDS011;10938;44.794;-0.676;2023-07-16T08:38:44;1.40;;;1.30;;
21554;SDS011;10938;44.794;-0.676;2023-07-16T08:41:09;3.20;;;1.70;;
21554;SDS011;10938;44.794;-0.676;2023-07-16T08:43:35;1.52;;;1.42;;
21554;SDS011;10938;44.794;-0.676;2023-07-16T08:46:00;2.03;;;1.58;;
21554;SDS011;10938;44.794;-0.676;2023-07-16T08:48:26;3.03;;;1.52;;
21554;SDS011;10938;44.794;-0.676;2023-07-16T08:50:53;1.23;;;1.10;;
21554;SDS011;10938;44.794;-0.676;2023-07-16T08:53:18;1.90;;;1.65;;
21554;SDS011;10938;44.794;-0.676;2023-07-16T08:55:47;2.35;;;1.30;;
21554;SDS011;10938;44.794;-0.676;2023-07-16T08:58:13;1.23;;;1.13;;
21554;SDS011;10938;44.794;-0.676;2023-07-16T09:00:40;1.67;;;1.40;;
21554;SDS011;10938;44.794;-0.676;2023-07-16T09:03:06;1.77;;;1.65;;
21554;SDS011;10938;44.794;-0.676;2023-07-16T09:05:31;1.40;;;1.30;;
21554;SDS011;10938;44.794;-0.676;2023-07-16T09:07:59;1.85;;;1.63;;
21554;SDS011;10938;44.794;-0.676;2023-07-16T09:10:24;1.67;;;1.57;;
21554;SDS011;10938;44.794;-0.676;2023-07-16T09:12:49;1.67;;;1.57;;
21554;SDS011;10938;44.794;-0.676;2023-07-16T09:15:16;1.50;;;1.40;;
21554;SDS011;10938;44.794;-0.676;2023-07-16T09:17:42;1.88;;;1.65;;
21554;SDS011;10938;44.794;-0.676;2023-07-16T09:20:07;1.60;;;1.50;;
21554;SDS011;10938;44.794;-0.676;2023-07-16T09:22:33;1.70;;;1.55;;
21554;SDS011;10938;44.794;-0.676;2023-07-16T09:25:02;1.48;;;1.38;;
21554;SDS011;10938;44.794;-0.676;2023-07-16T09:27:28;1.67;;;1.58;;
21554;SDS011;10938;44.794;-0.676;2023-07-16T09:29:54;4.03;;;1.88;;
21554;SDS011;10938;44.794;-0.676;2023-07-16T09:32:19;1.77;;;1.67;;
21554;SDS011;10938;44.794;-0.676;2023-07-16T09:34:44;1.53;;;1.43;;
21554;SDS011;10938;44.794;-0.676;2023-07-16T09:37:10;4.97;;;1.83;;
21554;SDS011;10938;44.794;-0.676;2023-07-16T09:39:35;1.70;;;1.60;;
21554;SDS011;10938;44.794;-0.676;2023-07-16T09:42:01;1.65;;;1.55;;
21554;SDS011;10938;44.794;-0.676;2023-07-16T09:44:27;2.08;;;1.90;;
21554;SDS011;10938;44.794;-0.676;2023-07-16T09:46:52;1.30;;;1.30;;
21554;SDS011;10938;44.794;-0.676;2023-07-16T09:49:29;2.13;;;1.70;;
21554;SDS011;10938;44.794;-0.676;2023-07-16T09:51:56;2.15;;;1.95;;
21554;SDS011;10938;44.794;-0.676;2023-07-16T09:54:21;1.83;;;1.73;;
21554;SDS011;10938;44.794;-0.676;2023-07-16T09:56:49;2.10;;;1.80;;
21554;SDS011;10938;44.794;-0.676;2023-07-16T09:59:16;1.55;;;1.50;;
21554;SDS011;10938;44.794;-0.676;2023-07-16T10:01:42;4.35;;;2.20;;
21554;SDS011;10938;44.794;-0.676;2023-07-16T10:04:14;2.47;;;1.65;;
21554;SDS011;10938;44.794;-0.676;2023-07-16T10:06:57;1.60;;;1.50;;
21554;SDS011;10938;44.794;-0.676;2023-07-16T10:09:36;3.67;;;1.85;;
21554;SDS011;10938;44.794;-0.676;2023-07-16T10:14:40;2.70;;;1.52;;
21554;SDS011;10938;44.794;-0.676;2023-07-16T10:17:05;1.73;;;1.63;;
21554;SDS011;10938;44.794;-0.676;2023-07-16T10:19:30;1.63;;;1.50;;
21554;SDS011;10938;44.794;-0.676;2023-07-16T10:21:56;1.73;;;1.52;;
21554;SDS011;10938;44.794;-0.676;2023-07-16T10:24:21;2.00;;;1.80;;
21554;SDS011;10938;44.794;-0.676;2023-07-16T10:26:52;1.20;;;1.20;;
21554;SDS011;10938;44.794;-0.676;2023-07-16T10:29:17;1.53;;;1.40;;
21554;SDS011;10938;44.794;-0.676;2023-07-16T10:31:42;1.50;;;1.40;;
21554;SDS011;10938;44.794;-0.676;2023-07-16T10:34:08;1.83;;;1.73;;
21554;SDS011;10938;44.794;-0.676;2023-07-16T10:36:37;2.08;;;1.90;;
21554;SDS011;10938;44.794;-0.676;2023-07-16T10:39:03;3.33;;;1.83;;
21554;SDS011;10938;44.794;-0.676;2023-07-16T10:41:30;1.67;;;1.58;;
21554;SDS011;10938;44.794;-0.676;2023-07-16T10:43:56;2.10;;;1.90;;
21554;SDS011;10938;44.794;-0.676;2023-07-16T10:46:21;4.10;;;2.33;;
21554;SDS011;10938;44.794;-0.676;2023-07-16T10:48:47;1.97;;;1.60;;
21554;SDS011;10938;44.794;-0.676;2023-07-16T10:51:15;1.50;;;1.40;;
21554;SDS011;10938;44.794;-0.676;2023-07-16T10:53:42;2.25;;;1.20;;
21554;SDS011;10938;44.794;-0.676;2023-07-16T10:56:07;1.70;;;1.38;;
21554;SDS011;10938;44.794;-0.676;2023-07-16T10:58:32;2.40;;;2.20;;
21554;SDS011;10938;44.794;-0.676;2023-07-16T11:00:58;1.73;;;1.63;;
21554;SDS011;10938;44.794;-0.676;2023-07-16T11:03:23;1.50;;;1.40;;
21554;SDS011;10938;44.794;-0.676;2023-07-16T11:05:48;1.53;;;1.33;;
21554;SDS011;10938;44.794;-0.676;2023-07-16T11:08:26;1.80;;;1.70;;
21554;SDS011;10938;44.794;-0.676;2023-07-16T11:10:55;3.10;;;1.58;;
21554;SDS011;10938;44.794;-0.676;2023-07-16T11:13:24;1.38;;;1.27;;
21554;SDS011;10938;44.794;-0.676;2023-07-16T11:15:49;1.50;;;1.40;;
21554;SDS011;10938;44.794;-0.676;2023-07-16T11:18:15;1.93;;;1.63;;
21554;SDS011;10938;44.794;-0.676;2023-07-16T11:20:40;2.20;;;1.97;;
21554;SDS011;10938;44.794;-0.676;2023-07-16T11:23:09;1.80;;;1.70;;
21554;SDS011;10938;44.794;-0.676;2023-07-16T11:25:35;1.15;;;1.05;;
21554;SDS011;10938;44.794;-0.676;2023-07-16T11:28:01;1.53;;;1.40;;
21554;SDS011;10938;44.794;-0.676;2023-07-16T11:30:26;1.80;;;1.58;;
21554;SDS011;10938;44.794;-0.676;2023-07-16T11:32:53;2.45;;;1.52;;
21554;SDS011;10938;44.794;-0.676;2023-07-16T11:35:19;1.20;;;1.10;;
21554;SDS011;10938;44.794;-0.676;2023-07-16T11:37:44;2.33;;;1.88;;
21554;SDS011;10938;44.794;-0.676;2023-07-16T11:40:14;1.08;;;1.08;;
21554;SDS011;10938;44.794;-0.676;2023-07-16T11:42:39;1.65;;;1.30;;
21554;SDS011;10938;44.794;-0.676;2023-07-16T11:45:14;1.02;;;1.00;;
21554;SDS011;10938;44.794;-0.676;2023-07-16T11:47:39;1.60;;;1.50;;
21554;SDS011;10938;44.794;-0.676;2023-07-16T11:50:05;1.30;;;1.20;;
21554;SDS011;10938;44.794;-0.676;2023-07-16T11:52:30;1.00;;;1.00;;
21554;SDS011;10938;44.794;-0.676;2023-07-16T11:54:56;1.80;;;1.30;;
21554;SDS011;10938;44.794;-0.676;2023-07-16T11:57:22;1.15;;;1.10;;
21554;SDS011;10938;44.794;-0.676;2023-07-16T11:59:47;2.28;;;1.90;;
21554;SDS011;10938;44.794;-0.676;2023-07-16T12:02:13;1.87;;;1.60;;
21554;SDS011;10938;44.794;-0.676;2023-07-16T12:04:38;1.23;;;1.13;;
21554;SDS011;10938;44.794;-0.676;2023-07-16T12:07:04;1.67;;;1.57;;
21554;SDS011;10938;44.794;-0.676;2023-07-16T12:09:29;1.45;;;1.35;;
21554;SDS011;10938;44.794;-0.676;2023-07-16T12:11:54;1.63;;;1.27;;
21554;SDS011;10938;44.794;-0.676;2023-07-16T12:14:20;1.52;;;1.42;;
21554;SDS011;10938;44.794;-0.676;2023-07-16T12:16:45;2.00;;;1.90;;
21554;SDS011;10938;44.794;-0.676;2023-07-16T12:19:10;1.80;;;1.70;;
21554;SDS011;10938;44.794;-0.676;2023-07-16T12:21:36;1.90;;;1.77;;
21554;SDS011;10938;44.794;-0.676;2023-07-16T12:24:01;1.65;;;1.50;;
21554;SDS011;10938;44.794;-0.676;2023-07-16T12:26:27;1.33;;;1.25;;
21554;SDS011;10938;44.794;-0.676;2023-07-16T12:28:52;1.65;;;1.55;;
21554;SDS011;10938;44.794;-0.676;2023-07-16T12:31:18;1.45;;;1.25;;
21554;SDS011;10938;44.794;-0.676;2023-07-16T12:33:45;1.40;;;1.30;;
21554;SDS011;10938;44.794;-0.676;2023-07-16T12:36:10;1.73;;;1.00;;
21554;SDS011;10938;44.794;-0.676;2023-07-16T12:38:35;1.42;;;1.33;;
21554;SDS011;10938;44.794;-0.676;2023-07-16T12:41:01;2.20;;;1.67;;
21554;SDS011;10938;44.794;-0.676;2023-07-16T12:43:26;1.30;;;1.20;;
21554;SDS011;10938;44.794;-0.676;2023-07-16T12:45:51;1.77;;;1.50;;
21554;SDS011;10938;44.794;-0.676;2023-07-16T12:48:16;1.47;;;1.33;;
21554;SDS011;10938;44.794;-0.676;2023-07-16T12:50:42;2.50;;;1.75;;
21554;SDS011;10938;44.794;-0.676;2023-07-16T12:53:07;1.40;;;1.30;;
21554;SDS011;10938;44.794;-0.676;2023-07-16T12:55:34;1.60;;;1.50;;
21554;SDS011;10938;44.794;-0.676;2023-07-16T12:57:59;1.50;;;1.35;;
21554;SDS011;10938;44.794;-0.676;2023-07-16T13:00:25;2.40;;;1.60;;
21554;SDS011;10938;44.794;-0.676;2023-07-16T13:02:50;2.25;;;2.03;;
21554;SDS011;10938;44.794;-0.676;2023-07-16T13:05:15;1.70;;;1.60;;
21554;SDS011;10938;44.794;-0.676;2023-07-16T13:07:41;1.13;;;1.13;;
21554;SDS011;10938;44.794;-0.676;2023-07-16T13:10:07;2.17;;;1.47;;
21554;SDS011;10938;44.794;-0.676;2023-07-16T13:12:32;2.15;;;1.63;;
21554;SDS011;10938;44.794;-0.676;2023-07-16T13:14:58;2.10;;;1.30;;
21554;SDS011;10938;44.794;-0.676;2023-07-16T13:17:23;2.40;;;1.93;;
21554;SDS011;10938;44.794;-0.676;2023-07-16T13:19:48;1.43;;;1.33;;
21554;SDS011;10938;44.794;-0.676;2023-07-16T13:22:13;2.50;;;1.40;;
21554;SDS011;10938;44.794;-0.676;2023-07-16T13:24:39;2.67;;;1.88;;
21554;SDS011;10938;44.794;-0.676;2023-07-16T13:27:04;1.27;;;1.17;;
21554;SDS011;10938;44.794;-0.676;2023-07-16T13:29:29;2.00;;;1.43;;
21554;SDS011;10938;44.794;-0.676;2023-07-16T13:31:55;2.50;;;2.10;;
21554;SDS011;10938;44.794;-0.676;2023-07-16T13:34:20;1.87;;;1.77;;
21554;SDS011;10938;44.794;-0.676;2023-07-16T13:36:45;1.43;;;1.30;;
21554;SDS011;10938;44.794;-0.676;2023-07-16T13:39:10;1.87;;;1.50;;
21554;SDS011;10938;44.794;-0.676;2023-07-16T13:41:38;1.65;;;1.55;;
21554;SDS011;10938;44.794;-0.676;2023-07-16T13:44:03;2.00;;;1.53;;
21554;SDS011;10938;44.794;-0.676;2023-07-16T13:46:29;2.50;;;1.77;;
21554;SDS011;10938;44.794;-0.676;2023-07-16T13:48:55;4.80;;;1.57;;
21554;SDS011;10938;44.794;-0.676;2023-07-16T13:51:22;1.65;;;1.55;;
21554;SDS011;10938;44.794;-0.676;2023-07-16T13:53:47;1.37;;;1.27;;
21554;SDS011;10938;44.794;-0.676;2023-07-16T13:56:12;1.17;;;1.08;;
21554;SDS011;10938;44.794;-0.676;2023-07-16T13:58:37;2.97;;;1.30;;
21554;SDS011;10938;44.794;-0.676;2023-07-16T14:01:03;1.50;;;1.40;;
21554;SDS011;10938;44.794;-0.676;2023-07-16T14:03:28;1.33;;;1.23;;
21554;SDS011;10938;44.794;-0.676;2023-07-16T14:05:53;1.83;;;1.30;;
21554;SDS011;10938;44.794;-0.676;2023-07-16T14:08:19;1.43;;;1.33;;
21554;SDS011;10938;44.794;-0.676;2023-07-16T14:10:44;3.83;;;1.52;;
21554;SDS011;10938;44.794;-0.676;2023-07-16T14:13:10;2.90;;;2.08;;
21554;SDS011;10938;44.794;-0.676;2023-07-16T14:15:36;0.93;;;0.90;;
21554;SDS011;10938;44.794;-0.676;2023-07-16T14:18:01;1.40;;;1.30;;
21554;SDS011;10938;44.794;-0.676;2023-07-16T14:20:27;1.63;;;1.40;;
21554;SDS011;10938;44.794;-0.676;2023-07-16T14:22:53;1.02;;;1.00;;
21554;SDS011;10938;44.794;-0.676;2023-07-16T14:25:18;1.20;;;1.10;;
21554;SDS011;10938;44.794;-0.676;2023-07-16T14:27:43;2.13;;;1.93;;
21554;SDS011;10938;44.794;-0.676;2023-07-16T14:30:09;1.65;;;1.45;;
21554;SDS011;10938;44.794;-0.676;2023-07-16T14:32:35;1.17;;;1.08;;
21554;SDS011;10938;44.794;-0.676;2023-07-16T14:35:01;1.77;;;1.67;;
21554;SDS011;10938;44.794;-0.676;2023-07-16T14:37:26;1.57;;;1.47;;